createdAt,value
2019-06-20T00:00:04.533Z,6
2019-06-20T00:01:04.319Z,6
2019-06-20T00:02:04.313Z,6
2019-06-20T00:03:04.327Z,6.2
2019-06-20T00:04:04.322Z,6.2
2019-06-20T00:05:04.286Z,6
2019-06-20T00:06:04.289Z,5.8
2019-06-20T00:07:04.256Z,5.8
2019-06-20T00:08:04.339Z,5.7
2019-06-20T00:09:04.250Z,5.7
2019-06-20T00:10:04.345Z,5.9
2019-06-20T00:11:05.313Z,6.3
2019-06-20T00:12:04.692Z,6
2019-06-20T00:13:04.216Z,5.9
2019-06-20T00:14:05.206Z,5.9
2019-06-20T00:15:04.253Z,6.1
2019-06-20T00:16:04.171Z,5.6
2019-06-20T00:17:04.176Z,6
2019-06-20T00:18:04.148Z,6
2019-06-20T00:19:04.213Z,6.2
2019-06-20T00:20:04.280Z,5.8
2019-06-20T00:21:04.128Z,6
2019-06-20T00:22:04.099Z,6.4
2019-06-20T00:23:04.109Z,5.7
2019-06-20T00:24:04.100Z,5.8
2019-06-20T00:25:05.320Z,5.7
2019-06-20T00:26:04.176Z,5.5
2019-06-20T00:27:04.295Z,5.6
2019-06-20T00:28:04.172Z,5.8
2019-06-20T00:29:04.148Z,5.6
2019-06-20T00:30:04.049Z,5.6
2019-06-20T00:31:04.155Z,5.3
2019-06-20T00:32:04.008Z,5.1
2019-06-20T00:33:04.010Z,5.5
2019-06-20T00:34:04.020Z,5.9
2019-06-20T00:35:03.967Z,5.5
2019-06-20T00:36:04.004Z,5.4
2019-06-20T00:37:03.947Z,5.3
2019-06-20T00:38:03.938Z,5.9
2019-06-20T00:39:03.955Z,5.9
2019-06-20T00:40:03.921Z,5.7
2019-06-20T00:41:04.968Z,6.6
2019-06-20T00:42:03.896Z,6
2019-06-20T00:43:16.685Z,6
2019-06-20T00:44:04.899Z,6.9
2019-06-20T00:45:03.880Z,6
2019-06-20T00:46:03.896Z,6.4
2019-06-20T00:47:03.834Z,6.8
2019-06-20T00:48:03.836Z,6.9
2019-06-20T00:49:04.018Z,6.7
2019-06-20T00:50:04.825Z,6
2019-06-20T00:51:03.856Z,6.3
2019-06-20T00:52:03.786Z,6.7
2019-06-20T00:53:03.778Z,6.4
2019-06-20T00:54:03.853Z,5.9
2019-06-20T00:55:03.763Z,5.8
2019-06-20T00:56:03.755Z,5.3
2019-06-20T00:57:03.749Z,6.2
2019-06-20T00:58:03.727Z,6.2
2019-06-20T00:59:03.767Z,6.2
2019-06-20T01:00:03.718Z,6
2019-06-20T01:01:03.715Z,5.7
2019-06-20T01:02:04.318Z,5.6
2019-06-20T01:03:03.686Z,5.7
2019-06-20T01:04:03.670Z,5.6
2019-06-20T01:05:03.658Z,5.6
2019-06-20T01:06:03.675Z,5.8
2019-06-20T01:07:03.686Z,5.9
2019-06-20T01:08:03.631Z,6
2019-06-20T01:09:03.638Z,5.8
2019-06-20T01:10:03.607Z,5.7
2019-06-20T01:11:03.596Z,6
2019-06-20T01:12:03.626Z,5.8
2019-06-20T01:13:03.569Z,5.8
2019-06-20T01:14:03.569Z,5.8
2019-06-20T01:15:03.569Z,6.2
2019-06-20T01:16:03.550Z,7.5
2019-06-20T01:17:03.593Z,7.1
2019-06-20T01:18:03.541Z,7
2019-06-20T01:19:03.512Z,6.9
2019-06-20T01:20:03.653Z,6.7
2019-06-20T01:21:03.498Z,6.5
2019-06-20T01:22:03.486Z,6.7
2019-06-20T01:23:03.481Z,7.1
2019-06-20T01:24:03.541Z,6.8
2019-06-20T01:25:03.447Z,6.9
2019-06-20T01:26:03.447Z,7.1
2019-06-20T01:27:03.445Z,6.6
2019-06-20T01:28:03.489Z,6.4
2019-06-20T01:29:04.413Z,6.1
2019-06-20T01:30:03.420Z,6.4
2019-06-20T01:31:03.382Z,5.9
2019-06-20T01:32:03.410Z,5.8
2019-06-20T01:33:03.435Z,6.1
2019-06-20T01:34:03.374Z,5.4
2019-06-20T01:35:03.348Z,5.4
2019-06-20T01:36:03.333Z,5.5
2019-06-20T01:37:03.320Z,5.5
2019-06-20T01:38:03.393Z,5.7
2019-06-20T01:39:03.304Z,5.4
2019-06-20T01:40:03.299Z,5.7
2019-06-20T01:41:06.105Z,5.9
2019-06-20T01:42:03.273Z,5.5
2019-06-20T01:43:03.315Z,5.6
2019-06-20T01:44:03.260Z,5.7
2019-06-20T01:45:03.298Z,5.2
2019-06-20T01:46:03.248Z,5.4
2019-06-20T01:47:03.221Z,5.1
2019-06-20T01:48:03.205Z,5.4
2019-06-20T01:49:03.207Z,5.4
2019-06-20T01:50:03.216Z,5.6
2019-06-20T01:51:03.194Z,5.3
2019-06-20T01:52:03.216Z,5.3
2019-06-20T01:53:03.162Z,5.3
2019-06-20T01:54:03.223Z,5.5
2019-06-20T01:55:04.160Z,5.2
2019-06-20T01:56:03.140Z,5.5
2019-06-20T01:57:03.149Z,5.6
2019-06-20T01:58:04.098Z,5.8
2019-06-20T01:59:03.186Z,5.5
2019-06-20T02:00:03.167Z,5.1
2019-06-20T02:01:03.090Z,5.3
2019-06-20T02:02:03.246Z,5.1
2019-06-20T02:03:04.972Z,5.4
2019-06-20T02:04:03.109Z,5.2
2019-06-20T02:05:03.037Z,5.4
2019-06-20T02:06:03.115Z,5.2
2019-06-20T02:07:03.016Z,5.6
2019-06-20T02:08:03.003Z,5.5
2019-06-20T02:09:04.058Z,5.3
2019-06-20T02:10:03.002Z,5.5
2019-06-20T02:11:03.005Z,5.4
2019-06-20T02:12:02.983Z,5.5
2019-06-20T02:13:02.976Z,5.4
2019-06-20T02:14:07.429Z,5.6
2019-06-20T02:15:02.948Z,5.5
2019-06-20T02:16:03.938Z,5.3
2019-06-20T02:17:02.938Z,5.8
2019-06-20T02:18:02.924Z,5.5
2019-06-20T02:19:02.973Z,5.4
2019-06-20T02:20:02.938Z,5.4
2019-06-20T02:21:02.897Z,5.3
2019-06-20T02:22:02.874Z,5.4
2019-06-20T02:23:02.851Z,5.2
2019-06-20T02:24:02.873Z,5.7
2019-06-20T02:25:02.901Z,5.4
2019-06-20T02:26:02.902Z,5.1
2019-06-20T02:27:02.813Z,5.8
2019-06-20T02:28:02.816Z,5.6
2019-06-20T02:29:02.789Z,5.6
2019-06-20T02:30:02.847Z,5.8
2019-06-20T02:31:02.778Z,5.4
2019-06-20T02:32:02.762Z,5.6
2019-06-20T02:33:02.768Z,5.6
2019-06-20T02:34:02.747Z,5.7
2019-06-20T02:35:02.779Z,6
2019-06-20T02:36:02.714Z,5.7
2019-06-20T02:37:02.721Z,5.7
2019-06-20T02:38:02.707Z,5.4
2019-06-20T02:39:02.688Z,5.7
2019-06-20T02:40:02.758Z,5.4
2019-06-20T02:41:02.663Z,5.7
2019-06-20T02:42:02.656Z,5.6
2019-06-20T02:43:02.641Z,5.5
2019-06-20T02:44:02.624Z,5.4
2019-06-20T02:45:02.631Z,5.8
2019-06-20T02:46:02.621Z,5.4
2019-06-20T02:47:02.603Z,5.4
2019-06-20T02:48:02.598Z,5.5
2019-06-20T02:49:02.588Z,5.5
2019-06-20T02:50:02.575Z,5.8
2019-06-20T02:51:02.615Z,5.6
2019-06-20T02:52:02.582Z,5.7
2019-06-20T02:53:02.544Z,5.8
2019-06-20T02:54:02.530Z,5.7
2019-06-20T02:55:03.512Z,6.1
2019-06-20T02:56:02.583Z,5.7
2019-06-20T02:57:02.492Z,5.9
2019-06-20T02:58:02.484Z,6.2
2019-06-20T02:59:02.491Z,6.2
2019-06-20T03:00:02.526Z,6.3
2019-06-20T03:01:02.509Z,6.3
2019-06-20T03:02:02.444Z,6.1
2019-06-20T03:03:02.436Z,6
2019-06-20T03:04:02.423Z,6.1
2019-06-20T03:05:02.428Z,6.3
2019-06-20T03:06:02.449Z,6.2
2019-06-20T03:07:02.405Z,5.8
2019-06-20T03:08:03.415Z,6.3
2019-06-20T03:09:02.377Z,6.1
2019-06-20T03:10:02.382Z,5.7
2019-06-20T03:11:03.427Z,6.3
2019-06-20T03:12:02.334Z,6
2019-06-20T03:13:02.331Z,6.1
2019-06-20T03:14:02.351Z,6.3
2019-06-20T03:15:02.326Z,6.5
2019-06-20T03:16:02.305Z,6.4
2019-06-20T03:17:02.324Z,6.3
2019-06-20T03:18:02.285Z,6.4
2019-06-20T03:19:02.327Z,6.5
2019-06-20T03:20:02.475Z,6.6
2019-06-20T03:21:02.259Z,6.5
2019-06-20T03:22:02.269Z,6.5
2019-06-20T03:23:02.237Z,6.8
2019-06-20T03:24:02.217Z,7.2
2019-06-20T03:25:03.421Z,7.3
2019-06-20T03:26:02.222Z,6.7
2019-06-20T03:27:02.249Z,6.9
2019-06-20T03:28:03.191Z,6.4
2019-06-20T03:29:02.174Z,7.2
2019-06-20T03:30:02.229Z,6.8
2019-06-20T03:31:02.161Z,6.9
2019-06-20T03:32:02.158Z,6.8
2019-06-20T03:33:02.205Z,6.6
2019-06-20T03:34:02.161Z,7
2019-06-20T03:35:02.212Z,6
2019-06-20T03:36:02.173Z,6.2
2019-06-20T03:37:02.091Z,6.4
2019-06-20T03:38:02.066Z,6.5
2019-06-20T03:39:02.099Z,6.1
2019-06-20T03:40:02.055Z,6.4
2019-06-20T03:41:02.160Z,6.2
2019-06-20T03:42:03.161Z,6.3
2019-06-20T03:43:02.136Z,6.7
2019-06-20T03:44:02.144Z,6.6
2019-06-20T03:45:04.156Z,6.6
2019-06-20T03:46:02.119Z,6.8
2019-06-20T03:47:02.089Z,6.5
2019-06-20T03:48:02.105Z,6.5
2019-06-20T03:49:02.123Z,6.6
2019-06-20T03:50:02.111Z,6.7
2019-06-20T03:51:02.154Z,6.6
2019-06-20T03:52:02.060Z,7
2019-06-20T03:53:02.054Z,6.7
2019-06-20T03:54:02.994Z,6.5
2019-06-20T03:55:02.039Z,6.8
2019-06-20T03:56:02.031Z,7
2019-06-20T03:57:01.950Z,6.2
2019-06-20T03:58:01.962Z,6.3
2019-06-20T03:59:01.866Z,6.4
2019-06-20T04:00:03.093Z,6.9
2019-06-20T04:01:01.866Z,7
2019-06-20T04:02:01.845Z,7
2019-06-20T04:03:01.818Z,7
2019-06-20T04:04:01.804Z,7
2019-06-20T04:05:01.943Z,7.1
2019-06-20T04:06:01.793Z,6.5
2019-06-20T04:07:01.768Z,6.9
2019-06-20T04:08:01.763Z,6.8
2019-06-20T04:09:01.769Z,6.6
2019-06-20T04:10:01.810Z,6.8
2019-06-20T04:11:03.057Z,7.3
2019-06-20T04:12:01.717Z,7.2
2019-06-20T04:13:01.717Z,6.7
2019-06-20T04:14:01.711Z,6.8
2019-06-20T04:15:15.016Z,6.8
2019-06-20T04:16:02.682Z,6.4
2019-06-20T04:17:02.767Z,6.7
2019-06-20T04:18:01.654Z,6.7
2019-06-20T04:19:01.657Z,6.8
2019-06-20T04:20:01.683Z,6.8
2019-06-20T04:21:01.635Z,7
2019-06-20T04:22:01.613Z,7.3
2019-06-20T04:23:01.610Z,7.6
2019-06-20T04:24:01.592Z,6.9
2019-06-20T04:25:01.607Z,7.1
2019-06-20T04:26:01.641Z,7.3
2019-06-20T04:27:01.564Z,7.1
2019-06-20T04:28:01.550Z,7.2
2019-06-20T04:29:01.547Z,7.1
2019-06-20T04:30:01.540Z,7.5
2019-06-20T04:31:01.577Z,7.1
2019-06-20T04:32:01.529Z,7.4
2019-06-20T04:33:01.512Z,7.7
2019-06-20T04:34:01.520Z,7.9
2019-06-20T04:35:01.485Z,7.7
2019-06-20T04:36:01.668Z,7.5
2019-06-20T04:37:01.475Z,7.4
2019-06-20T04:38:01.463Z,7.9
2019-06-20T04:39:01.647Z,8.1
2019-06-20T04:40:02.437Z,8.6
2019-06-20T04:41:01.486Z,8.4
2019-06-20T04:42:01.407Z,7.6
2019-06-20T04:43:01.457Z,7.9
2019-06-20T04:44:01.445Z,7.7
2019-06-20T04:45:01.390Z,7.8
2019-06-20T04:46:01.369Z,7.8
2019-06-20T04:47:01.534Z,8.6
2019-06-20T04:48:01.361Z,8.5
2019-06-20T04:49:01.353Z,8.1
2019-06-20T04:50:02.335Z,8.2
2019-06-20T04:51:01.335Z,7.7
2019-06-20T04:52:01.376Z,7.8
2019-06-20T04:53:01.303Z,7.8
2019-06-20T04:54:01.288Z,7.7
2019-06-20T04:55:01.292Z,7.3
2019-06-20T04:56:04.621Z,7.3
2019-06-20T04:57:02.326Z,7.9
2019-06-20T04:58:01.257Z,7.5
2019-06-20T04:59:01.233Z,7.7
2019-06-20T05:00:01.224Z,7.3
2019-06-20T05:01:01.231Z,7.6
2019-06-20T05:02:01.262Z,7.6
2019-06-20T05:03:01.199Z,7.5
2019-06-20T05:04:01.192Z,7.1
2019-06-20T05:05:01.175Z,7.3
2019-06-20T05:06:01.165Z,7.6
2019-06-20T05:07:01.213Z,7.4
2019-06-20T05:08:01.146Z,7.3
2019-06-20T05:09:01.147Z,7.2
2019-06-20T05:10:01.133Z,7.1
2019-06-20T05:11:01.122Z,7.5
2019-06-20T05:12:01.168Z,7.2
2019-06-20T05:13:01.155Z,7
2019-06-20T05:14:01.086Z,7.4
2019-06-20T05:15:01.073Z,7.5
2019-06-20T05:16:01.085Z,8
2019-06-20T05:17:01.055Z,8
2019-06-20T05:18:01.046Z,7.8
2019-06-20T05:19:01.048Z,7.9
2019-06-20T05:20:01.018Z,8
2019-06-20T05:21:01.014Z,8.3
2019-06-20T05:22:02.005Z,8.7
2019-06-20T05:23:01.006Z,8.7
2019-06-20T05:24:01.023Z,8.9
2019-06-20T05:25:00.984Z,8.5
2019-06-20T05:26:00.959Z,8.7
2019-06-20T05:27:01.938Z,9.1
2019-06-20T05:28:00.991Z,9.8
2019-06-20T05:29:00.937Z,9.1
2019-06-20T05:30:01.951Z,9.2
2019-06-20T05:31:00.926Z,9.2
2019-06-20T05:32:00.917Z,8.8
2019-06-20T05:33:00.945Z,8.8
2019-06-20T05:34:00.885Z,8.3
2019-06-20T05:35:03.013Z,8.9
2019-06-20T05:36:01.843Z,8.8
2019-06-20T05:37:00.858Z,8.2
2019-06-20T05:38:00.920Z,9.3
2019-06-20T05:39:00.834Z,8.7
2019-06-20T05:40:00.825Z,9.6
2019-06-20T05:41:01.110Z,9
2019-06-20T05:42:00.801Z,8.7
2019-06-20T05:43:00.873Z,8.8
2019-06-20T05:44:00.772Z,8.4
2019-06-20T05:45:00.763Z,8.6
2019-06-20T05:46:09.199Z,9.2
2019-06-20T05:47:12.184Z,8.7
2019-06-20T05:48:01.799Z,9.1
2019-06-20T05:49:01.112Z,8.7
2019-06-20T05:50:00.708Z,8.9
2019-06-20T05:51:00.712Z,8.8
2019-06-20T05:52:00.702Z,8.6
2019-06-20T05:53:00.689Z,8.6
2019-06-20T05:54:02.658Z,8.3
2019-06-20T05:55:00.661Z,8.6
2019-06-20T05:56:00.648Z,8.2
2019-06-20T05:57:03.577Z,8.7
2019-06-20T05:58:01.627Z,8.1
2019-06-20T05:59:00.617Z,7.9
2019-06-20T06:00:00.914Z,8.7
2019-06-20T06:01:00.612Z,8.3
2019-06-20T06:02:00.592Z,8.1
2019-06-20T06:03:01.582Z,8
2019-06-20T06:04:01.613Z,8.4
2019-06-20T06:05:01.473Z,8
2019-06-20T06:06:00.544Z,8.5
2019-06-20T06:07:00.554Z,8.2
2019-06-20T06:08:00.531Z,8.2
2019-06-20T06:09:00.666Z,8.8
2019-06-20T06:10:03.960Z,8.3
2019-06-20T06:11:01.503Z,8.7
2019-06-20T06:12:00.492Z,8.9
2019-06-20T06:13:00.480Z,8.5
2019-06-20T06:14:00.537Z,8.1
2019-06-20T06:15:02.458Z,8.5
2019-06-20T06:16:01.438Z,7.6
2019-06-20T06:17:00.473Z,8.2
2019-06-20T06:18:00.474Z,8.3
2019-06-20T06:19:00.477Z,8.1
2019-06-20T06:20:00.407Z,7.9
2019-06-20T06:21:00.401Z,8.1
2019-06-20T06:22:00.393Z,8.2
2019-06-20T06:23:00.372Z,8.1
2019-06-20T06:24:00.370Z,8.3
2019-06-20T06:25:00.377Z,7.6
2019-06-20T06:26:01.351Z,7.7
2019-06-20T06:27:03.325Z,7.4
2019-06-20T06:28:00.324Z,8
2019-06-20T06:29:00.321Z,7.8
2019-06-20T06:30:00.355Z,8.2
2019-06-20T06:31:00.301Z,8.8
2019-06-20T06:32:00.300Z,8.5
2019-06-20T06:33:00.272Z,8.4
2019-06-20T06:34:00.338Z,8.3
2019-06-20T06:35:00.306Z,8.2
2019-06-20T06:36:00.262Z,8.4
2019-06-20T06:37:01.291Z,8.2
2019-06-20T06:38:00.236Z,7.9
2019-06-20T06:39:00.354Z,7.8
2019-06-20T06:40:00.320Z,7.9
2019-06-20T06:41:00.345Z,8.2
2019-06-20T06:42:00.183Z,8.1
2019-06-20T06:43:00.241Z,8.7
2019-06-20T06:44:00.313Z,7.6
2019-06-20T06:45:00.255Z,7.9
2019-06-20T06:46:00.258Z,8
2019-06-20T06:47:02.110Z,7.9
2019-06-20T06:48:00.190Z,8
2019-06-20T06:49:00.270Z,7.6
2019-06-20T06:50:00.113Z,7.8
2019-06-20T06:51:00.216Z,8.4
2019-06-20T06:52:00.199Z,7.9
2019-06-20T06:53:00.073Z,7.8
2019-06-20T06:54:01.140Z,7.9
2019-06-20T06:55:00.081Z,7.7
2019-06-20T06:56:00.094Z,8.1
2019-06-20T06:57:00.047Z,8
2019-06-20T06:58:00.021Z,8.2
2019-06-20T06:59:00.095Z,8.2
2019-06-20T07:00:00.080Z,8.6
2019-06-20T07:01:00.138Z,8
2019-06-20T07:01:59.993Z,7.9
2019-06-20T07:03:00.096Z,8.1
2019-06-20T07:03:59.986Z,7.9
2019-06-20T07:04:59.989Z,7.9
2019-06-20T07:06:00.041Z,8.1
2019-06-20T07:06:59.934Z,8.4
2019-06-20T07:07:59.920Z,8.6
2019-06-20T07:09:00.930Z,8.2
2019-06-20T07:09:59.993Z,8.3
2019-06-20T07:10:59.970Z,8.3
2019-06-20T07:11:59.939Z,8.2
2019-06-20T07:12:59.881Z,8.7
2019-06-20T07:13:59.860Z,8.2
2019-06-20T07:14:59.846Z,8.7
2019-06-20T07:15:59.853Z,8
2019-06-20T07:17:01.795Z,8.6
2019-06-20T07:17:59.815Z,8.1
2019-06-20T07:18:59.814Z,8.1
2019-06-20T07:19:59.817Z,8.1
2019-06-20T07:20:59.796Z,8.7
2019-06-20T07:21:59.828Z,7.9
2019-06-20T07:22:59.861Z,8.2
2019-06-20T07:23:59.791Z,8.2
2019-06-20T07:24:59.794Z,8.4
2019-06-20T07:25:59.732Z,8.2
2019-06-20T07:26:59.818Z,8
2019-06-20T07:27:59.765Z,7.5
2019-06-20T07:28:59.753Z,8.2
2019-06-20T07:29:59.696Z,8.6
2019-06-20T07:31:00.571Z,8
2019-06-20T07:31:59.730Z,8
2019-06-20T07:32:59.663Z,7.8
2019-06-20T07:33:59.650Z,7.8
2019-06-20T07:35:00.631Z,8
2019-06-20T07:35:59.637Z,8.2
2019-06-20T07:36:59.659Z,8.2
2019-06-20T07:37:59.615Z,8.4
2019-06-20T07:38:59.591Z,7.8
2019-06-20T07:39:59.594Z,8
2019-06-20T07:41:00.568Z,8.4
2019-06-20T07:41:59.567Z,8.1
2019-06-20T07:42:59.563Z,8.1
2019-06-20T07:43:59.582Z,8.2
2019-06-20T07:44:59.538Z,8.1
2019-06-20T07:46:03.341Z,8.4
2019-06-20T07:46:59.535Z,8.3
2019-06-20T07:48:00.551Z,8.4
2019-06-20T07:48:59.502Z,8.4
2019-06-20T07:49:59.479Z,8.5
2019-06-20T07:50:59.476Z,8.5
2019-06-20T07:51:59.482Z,8.6
2019-06-20T07:53:03.055Z,8.7
2019-06-20T07:53:59.453Z,8.3
2019-06-20T07:54:59.434Z,8.1
2019-06-20T07:55:59.413Z,7.7
2019-06-20T07:56:59.405Z,8.3
2019-06-20T07:57:59.444Z,8
2019-06-20T07:58:59.445Z,8.3
2019-06-20T07:59:59.418Z,8.1
2019-06-20T08:00:59.401Z,8.5
2019-06-20T08:01:59.440Z,8.7
2019-06-20T08:02:59.440Z,8.1
2019-06-20T08:03:59.379Z,8.1
2019-06-20T08:04:59.356Z,8.7
2019-06-20T08:06:00.345Z,8.6
2019-06-20T08:06:59.368Z,8.2
2019-06-20T08:07:59.333Z,8.4
2019-06-20T08:08:59.349Z,8.4
2019-06-20T08:09:59.284Z,7.9
2019-06-20T08:10:59.269Z,8.3
2019-06-20T08:11:59.260Z,8.4
2019-06-20T08:12:59.243Z,8.3
2019-06-20T08:13:59.340Z,8.4
2019-06-20T08:15:13.892Z,8.7
2019-06-20T08:16:03.383Z,8.8
2019-06-20T08:17:00.215Z,8.9
2019-06-20T08:17:59.197Z,8.6
2019-06-20T08:18:59.256Z,8.3
2019-06-20T08:19:59.174Z,9.3
2019-06-20T08:20:59.166Z,8.7
2019-06-20T08:22:00.159Z,8
2019-06-20T08:22:59.150Z,8.7
2019-06-20T08:23:59.213Z,9.1
2019-06-20T08:25:03.219Z,9
2019-06-20T08:26:02.515Z,9
2019-06-20T08:27:03.168Z,9
2019-06-20T08:28:02.330Z,9.2
2019-06-20T08:29:11.394Z,9.2
2019-06-20T08:30:03.437Z,8.7
2019-06-20T08:31:02.539Z,9.3
2019-06-20T08:32:04.400Z,9.2
2019-06-20T08:33:05.855Z,9
2019-06-20T08:34:04.329Z,8.6
2019-06-20T08:35:04.423Z,9.2
2019-06-20T08:36:04.464Z,9
2019-06-20T08:37:04.250Z,9.1
2019-06-20T08:38:03.552Z,9.2
2019-06-20T08:39:03.021Z,9.1
2019-06-20T08:40:01.986Z,8.8
2019-06-20T08:41:04.281Z,9
2019-06-20T08:42:04.286Z,9
2019-06-20T08:43:04.121Z,9.3
2019-06-20T08:44:03.909Z,9.7
2019-06-20T08:45:03.907Z,9.2
2019-06-20T08:46:04.123Z,9.7
2019-06-20T08:47:03.847Z,9.7
2019-06-20T08:48:02.578Z,9
2019-06-20T08:49:01.435Z,9.7
2019-06-20T08:50:01.484Z,9.2
2019-06-20T08:51:02.143Z,9.2
2019-06-20T08:52:01.229Z,9.3
2019-06-20T08:53:03.621Z,9.5
2019-06-20T08:54:03.297Z,9.6
2019-06-20T08:55:03.347Z,9.3
2019-06-20T08:56:03.095Z,8.9
2019-06-20T08:57:03.474Z,9.2
2019-06-20T08:58:03.410Z,9.2
2019-06-20T08:59:02.593Z,9
2019-06-20T09:00:01.069Z,9.2
2019-06-20T09:05:00.746Z,9.5
2019-06-20T09:09:00.660Z,9.2
2019-06-20T09:10:01.944Z,9.8
2019-06-20T09:11:03.895Z,9.1
2019-06-20T09:12:02.377Z,10
2019-06-20T09:12:59.617Z,9.8
2019-06-20T09:13:59.607Z,9.5
2019-06-20T09:14:59.118Z,9.7
2019-06-20T09:16:00.752Z,9.3
2019-06-20T09:17:02.814Z,9.5
2019-06-20T09:18:02.725Z,9
2019-06-20T09:19:02.593Z,9.4
2019-06-20T09:19:58.561Z,9.1
2019-06-20T09:21:00.598Z,9.5
2019-06-20T09:21:58.543Z,9
2019-06-20T09:23:00.909Z,9.1
2019-06-20T09:23:59.914Z,9.2
2019-06-20T09:25:02.608Z,9.2
2019-06-20T09:26:01.957Z,9
2019-06-20T09:27:00.501Z,9.1
2019-06-20T09:28:02.600Z,8.7
2019-06-20T09:29:00.439Z,8.7
2019-06-20T09:30:03.294Z,8.5
2019-06-20T09:30:59.556Z,9.5
2019-06-20T09:32:00.019Z,8.6
2019-06-20T09:32:58.429Z,8.4
2019-06-20T09:34:04.077Z,8.3
2019-06-20T09:34:59.408Z,8
2019-06-20T09:36:00.442Z,8.1
2019-06-20T09:37:00.375Z,8.9
2019-06-20T09:38:00.345Z,8.8
2019-06-20T09:39:00.353Z,8.8
2019-06-20T09:40:00.328Z,8.8
2019-06-20T09:41:00.315Z,8.7
2019-06-20T09:41:58.884Z,8.3
2019-06-20T09:42:59.352Z,8.1
2019-06-20T09:43:59.311Z,8.5
2019-06-20T09:44:59.295Z,8.2
2019-06-20T09:46:00.320Z,7.7
2019-06-20T09:47:00.357Z,7.9
2019-06-20T09:48:00.259Z,8.4
2019-06-20T09:48:59.260Z,8.6
2019-06-20T09:50:00.235Z,8.2
2019-06-20T09:50:59.287Z,8.1
2019-06-20T09:51:59.287Z,8.2
2019-06-20T09:53:00.229Z,8.2
2019-06-20T09:54:00.203Z,8.4
2019-06-20T09:55:00.186Z,8.6
2019-06-20T09:56:00.170Z,7.9
2019-06-20T09:57:00.895Z,8.2
2019-06-20T09:58:00.204Z,7.8
2019-06-20T09:58:59.165Z,8.1
2019-06-20T10:00:09.331Z,8.4
2019-06-20T10:00:59.145Z,8
2019-06-20T10:02:00.176Z,7.8
2019-06-20T10:03:00.110Z,8.1
2019-06-20T10:03:59.088Z,7.8
2019-06-20T10:04:59.090Z,8.2
2019-06-20T10:05:59.142Z,7.8
2019-06-20T10:06:59.135Z,7.9
2019-06-20T10:07:59.049Z,7.7
2019-06-20T10:08:58.059Z,7.9
2019-06-20T10:09:58.041Z,7.9
2019-06-20T10:10:58.038Z,7.7
2019-06-20T10:11:58.021Z,7.6
2019-06-20T10:12:59.028Z,7.5
2019-06-20T10:13:58.514Z,7.8
2019-06-20T10:14:58.974Z,7.7
2019-06-20T10:15:59.015Z,8.1
2019-06-20T10:16:58.963Z,8.1
2019-06-20T10:17:58.997Z,8.1
2019-06-20T10:18:58.935Z,8.2
2019-06-20T10:19:57.936Z,7.8
2019-06-20T10:20:58.928Z,8.3
2019-06-20T10:21:57.916Z,8.4
2019-06-20T10:22:57.991Z,8.2
2019-06-20T10:23:57.975Z,7.8
2019-06-20T10:24:58.880Z,8
2019-06-20T10:25:58.866Z,8.6
2019-06-20T10:26:58.870Z,7.8
2019-06-20T10:27:58.899Z,7.9
2019-06-20T10:28:57.844Z,7.8
2019-06-20T10:30:13.348Z,8
2019-06-20T10:30:59.807Z,7.7
2019-06-20T10:31:57.809Z,8
2019-06-20T10:32:58.958Z,8
2019-06-20T10:33:58.779Z,8.2
2019-06-20T10:34:57.834Z,7.7
2019-06-20T10:35:58.780Z,7.4
2019-06-20T10:36:58.814Z,7.4
2019-06-20T10:37:58.864Z,8.2
2019-06-20T10:38:58.738Z,7.8
2019-06-20T10:39:58.868Z,7.6
2019-06-20T10:41:00.142Z,7.4
2019-06-20T10:41:58.847Z,8.1
2019-06-20T10:42:58.840Z,8
2019-06-20T10:43:58.854Z,7.9
2019-06-20T10:44:57.684Z,7.9
2019-06-20T10:45:58.665Z,7.5
2019-06-20T10:46:57.657Z,7.6
2019-06-20T10:47:57.651Z,7.6
2019-06-20T10:48:57.631Z,7.7
2019-06-20T10:49:57.623Z,7.9
2019-06-20T10:50:57.626Z,8.2
2019-06-20T10:51:57.607Z,8.2
2019-06-20T10:52:57.591Z,8.4
2019-06-20T10:53:57.729Z,8.4
2019-06-20T10:54:57.572Z,7.8
2019-06-20T10:55:57.555Z,7.8
2019-06-20T10:56:57.562Z,8
2019-06-20T10:57:57.543Z,7.9
2019-06-20T10:58:57.592Z,7.8
2019-06-20T10:59:57.546Z,7.9
2019-06-20T11:00:57.512Z,7.8
2019-06-20T11:01:57.525Z,8.1
2019-06-20T11:02:57.521Z,8.3
2019-06-20T11:03:57.552Z,7.7
2019-06-20T11:04:57.474Z,8
2019-06-20T11:05:57.476Z,8.1
2019-06-20T11:06:57.446Z,8.2
2019-06-20T11:07:57.435Z,7.6
2019-06-20T11:08:57.562Z,8.7
2019-06-20T11:09:57.434Z,7.5
2019-06-20T11:10:57.428Z,7.8
2019-06-20T11:11:57.421Z,7.8
2019-06-20T11:12:58.407Z,7.7
2019-06-20T11:13:57.388Z,7.8
2019-06-20T11:14:57.381Z,7.9
2019-06-20T11:15:57.352Z,8.2
2019-06-20T11:16:57.345Z,7.5
2019-06-20T11:17:59.329Z,7.5
2019-06-20T11:18:57.327Z,7.4
2019-06-20T11:19:57.370Z,7.4
2019-06-20T11:20:57.375Z,7.7
2019-06-20T11:21:57.293Z,7.1
2019-06-20T11:22:57.283Z,7.9
2019-06-20T11:23:57.292Z,7.8
2019-06-20T11:24:57.310Z,7.5
2019-06-20T11:25:57.266Z,7.2
2019-06-20T11:26:57.265Z,7.4
2019-06-20T11:27:57.233Z,7.4
2019-06-20T11:28:58.229Z,7.4
2019-06-20T11:29:58.266Z,7.7
2019-06-20T11:31:00.801Z,8
2019-06-20T11:31:57.186Z,7.9
2019-06-20T11:32:57.188Z,7.5
2019-06-20T11:33:57.165Z,7.2
2019-06-20T11:34:57.235Z,7
2019-06-20T11:35:57.159Z,7
2019-06-20T11:36:57.144Z,7.3
2019-06-20T11:37:58.117Z,7.3
2019-06-20T11:38:57.122Z,7.2
2019-06-20T11:39:57.106Z,7.1
2019-06-20T11:40:57.106Z,7.2
2019-06-20T11:41:57.109Z,7.4
2019-06-20T11:42:57.079Z,7.1
2019-06-20T11:43:57.078Z,7.5
2019-06-20T11:44:57.079Z,7.1
2019-06-20T11:45:57.195Z,7.2
2019-06-20T11:46:57.045Z,7.2
2019-06-20T11:47:57.040Z,7.5
2019-06-20T11:48:57.018Z,7.3
2019-06-20T11:49:57.008Z,7.3
2019-06-20T11:50:57.055Z,7.4
2019-06-20T11:51:56.990Z,7.3
2019-06-20T11:52:56.977Z,7.7
2019-06-20T11:53:56.971Z,7.3
2019-06-20T11:54:56.948Z,7.6
2019-06-20T11:55:57.008Z,7.6
2019-06-20T11:56:56.945Z,7.2
2019-06-20T11:57:56.930Z,7.5
2019-06-20T11:58:56.928Z,7.3
2019-06-20T11:59:56.922Z,6.9
2019-06-20T12:01:03.745Z,7.3
2019-06-20T12:01:57.882Z,7
2019-06-20T12:02:56.878Z,7.1
2019-06-20T12:03:56.867Z,7
2019-06-20T12:04:56.857Z,7.2
2019-06-20T12:05:56.848Z,6.9
2019-06-20T12:06:56.831Z,7.1
2019-06-20T12:07:56.843Z,7.2
2019-06-20T12:08:56.803Z,7
2019-06-20T12:09:56.802Z,7
2019-06-20T12:10:56.801Z,6.7
2019-06-20T12:11:56.843Z,7
2019-06-20T12:12:56.769Z,6.7
2019-06-20T12:13:56.783Z,7.1
2019-06-20T12:14:56.746Z,6.7
2019-06-20T12:15:56.749Z,6.8
2019-06-20T12:16:56.868Z,7.3
2019-06-20T12:17:56.726Z,6.4
2019-06-20T12:18:57.711Z,7
2019-06-20T12:19:56.721Z,6.5
2019-06-20T12:20:56.681Z,6.4
2019-06-20T12:21:56.733Z,6.9
2019-06-20T12:22:56.733Z,6.4
2019-06-20T12:23:56.649Z,6.3
2019-06-20T12:24:56.654Z,6.5
2019-06-20T12:25:56.637Z,6.6
2019-06-20T12:26:56.685Z,6.3
2019-06-20T12:27:56.606Z,6.5
2019-06-20T12:28:56.620Z,6.5
2019-06-20T12:29:56.602Z,6.4
2019-06-20T12:30:56.576Z,6.8
2019-06-20T12:31:59.129Z,6.8
2019-06-20T12:32:56.565Z,6.9
2019-06-20T12:33:56.549Z,7.2
2019-06-20T12:34:56.643Z,7.1
2019-06-20T12:35:56.527Z,7.1
2019-06-20T12:36:56.528Z,6.8
2019-06-20T12:37:56.593Z,6.8
2019-06-20T12:38:56.544Z,7.1
2019-06-20T12:39:56.491Z,6.4
2019-06-20T12:40:56.490Z,7
2019-06-20T12:41:57.460Z,6.9
2019-06-20T12:42:56.533Z,6.8
2019-06-20T12:43:56.449Z,6.9
2019-06-20T12:44:56.456Z,7
2019-06-20T12:45:57.447Z,6.7
2019-06-20T12:46:56.422Z,6.8
2019-06-20T12:47:56.660Z,7.1
2019-06-20T12:48:56.497Z,6.8
2019-06-20T12:49:56.431Z,6.8
2019-06-20T12:50:56.378Z,6.9
2019-06-20T12:51:56.363Z,6.9
2019-06-20T12:52:56.441Z,6.5
2019-06-20T12:53:56.358Z,7.3
2019-06-20T12:54:56.343Z,7.2
2019-06-20T12:55:56.344Z,7.2
2019-06-20T12:56:56.340Z,6.9
2019-06-20T12:57:56.305Z,6.7
2019-06-20T12:58:57.311Z,7.3
2019-06-20T12:59:56.296Z,7.9
2019-06-20T13:00:56.294Z,7.5
2019-06-20T13:01:56.266Z,6.6
2019-06-20T13:02:56.262Z,6.7
2019-06-20T13:03:57.319Z,7.7
2019-06-20T13:04:56.246Z,7.1
2019-06-20T13:05:56.236Z,6.8
2019-06-20T13:06:56.208Z,7.3
2019-06-20T13:07:56.257Z,7.1
2019-06-20T13:08:56.266Z,6.6
2019-06-20T13:09:56.180Z,7.1
2019-06-20T13:10:57.161Z,7.3
2019-06-20T13:11:56.172Z,6.6
2019-06-20T13:12:56.148Z,6.8
2019-06-20T13:13:57.191Z,6.5
2019-06-20T13:14:56.127Z,6.7
2019-06-20T13:15:56.114Z,6.4
2019-06-20T13:16:56.118Z,6.8
2019-06-20T13:17:56.097Z,6.5
2019-06-20T13:18:56.184Z,6.6
2019-06-20T13:19:56.371Z,6.6
2019-06-20T13:20:56.059Z,6.9
2019-06-20T13:21:56.118Z,6.2
2019-06-20T13:22:56.081Z,6.5
2019-06-20T13:23:56.127Z,6.3
2019-06-20T13:24:56.029Z,6.6
2019-06-20T13:25:56.044Z,7.1
2019-06-20T13:26:57.004Z,6.5
2019-06-20T13:27:55.990Z,7.1
2019-06-20T13:29:03.939Z,6.8
2019-06-20T13:29:56.984Z,7
2019-06-20T13:30:55.972Z,7.1
2019-06-20T13:32:04.089Z,6.6
2019-06-20T13:32:56.943Z,7
2019-06-20T13:33:55.933Z,6.6
2019-06-20T13:34:55.975Z,6.8
2019-06-20T13:35:55.911Z,6.9
2019-06-20T13:36:55.989Z,6.8
2019-06-20T13:37:55.971Z,7.3
2019-06-20T13:38:56.008Z,6.9
2019-06-20T13:39:55.874Z,7
2019-06-20T13:40:55.912Z,7.2
2019-06-20T13:41:55.850Z,6.9
2019-06-20T13:42:56.836Z,6.9
2019-06-20T13:43:55.871Z,7.2
2019-06-20T13:44:56.430Z,6.5
2019-06-20T13:45:55.813Z,7.3
2019-06-20T13:46:56.840Z,7.4
2019-06-20T13:47:55.963Z,7
2019-06-20T13:48:55.896Z,6.8
2019-06-20T13:49:55.839Z,7.2
2019-06-20T13:50:55.752Z,7.1
2019-06-20T13:51:55.754Z,7.1
2019-06-20T13:52:56.819Z,6.9
2019-06-20T13:54:01.190Z,7.6
2019-06-20T13:55:00.645Z,7.2
2019-06-20T13:55:55.713Z,7
2019-06-20T13:56:56.697Z,7.4
2019-06-20T13:57:55.705Z,7.1